createdAt,value
2022-10-29T00:00:02.217Z,11.11
2022-10-29T00:01:27.738Z,10.98
2022-10-29T00:02:32.255Z,11.08
2022-10-29T00:03:36.926Z,11.15
2022-10-29T00:04:39.539Z,11.17
2022-10-29T00:05:42.765Z,11.17
2022-10-29T00:06:45.812Z,11.19
2022-10-29T00:07:47.962Z,11.15
2022-10-29T00:08:51.411Z,11.16
2022-10-29T00:09:53.512Z,11.13
2022-10-29T00:10:56.070Z,11.09
2022-10-29T00:11:58.634Z,11.04
2022-10-29T00:13:02.628Z,11.15
2022-10-29T00:14:05.981Z,11.20
2022-10-29T00:15:08.688Z,11.13
2022-10-29T00:16:15.864Z,10.97
2022-10-29T00:17:18.894Z,10.94
2022-10-29T00:18:22.139Z,10.91
2022-10-29T00:19:26.958Z,10.97
2022-10-29T00:20:29.080Z,11.01
2022-10-29T00:21:31.434Z,11.05
2022-10-29T00:22:37.491Z,11.04
2022-10-29T00:23:40.608Z,11.08
2022-10-29T00:24:43.275Z,11.08
2022-10-29T00:25:45.296Z,11.07
2022-10-29T00:26:47.540Z,11.05
2022-10-29T00:27:49.806Z,11.12
2022-10-29T00:28:54.862Z,11.12
2022-10-29T00:29:57.182Z,11.12
2022-10-29T00:31:06.712Z,11.06
2022-10-29T00:32:10.134Z,11.09
2022-10-29T00:33:13.660Z,11.11
2022-10-29T00:34:15.928Z,11.13
2022-10-29T00:35:18.208Z,11.18
2022-10-29T00:36:23.579Z,11.20
2022-10-29T00:37:27.013Z,11.22
2022-10-29T00:38:31.359Z,11.16
2022-10-29T00:39:36.942Z,11.13
2022-10-29T00:40:39.264Z,11.12
2022-10-29T00:41:41.852Z,11.11
2022-10-29T00:42:43.876Z,11.18
2022-10-29T00:43:51.613Z,11.15
2022-10-29T00:44:54.267Z,11.20
2022-10-29T00:46:08.154Z,11.01
2022-10-29T00:47:24.430Z,11.12
2022-10-29T00:48:30.135Z,11.11
2022-10-29T00:49:34.551Z,11.15
2022-10-29T00:50:36.698Z,11.10
2022-10-29T00:51:40.077Z,11.14
2022-10-29T00:52:46.276Z,11.14
2022-10-29T00:53:57.084Z,11.16
2022-10-29T00:55:03.034Z,11.11
2022-10-29T00:56:06.273Z,11.10
2022-10-29T00:57:13.435Z,11.02
2022-10-29T00:58:17.882Z,11.11
2022-10-29T00:59:21.659Z,11.11
2022-10-29T01:00:24.020Z,11.12
2022-10-29T01:01:27.596Z,11.06
2022-10-29T01:02:33.512Z,11.13
2022-10-29T01:03:35.804Z,11.15
2022-10-29T01:04:40.878Z,11.18
2022-10-29T01:05:47.922Z,10.97
2022-10-29T01:06:50.279Z,11.05
2022-10-29T01:07:52.662Z,11.04
2022-10-29T01:08:54.816Z,11.12
2022-10-29T01:09:57.346Z,11.10
2022-10-29T01:11:43.866Z,10.92
2022-10-29T01:13:33.880Z,10.98
2022-10-29T01:14:38.676Z,10.99
2022-10-29T01:15:50.459Z,10.96
2022-10-29T01:17:21.278Z,10.89
2022-10-29T01:18:38.854Z,10.95
2022-10-29T01:19:49.636Z,10.93
2022-10-29T01:21:09.654Z,10.96
2022-10-29T01:22:36.704Z,10.92
2022-10-29T01:23:54.230Z,10.97
2022-10-29T01:25:18.354Z,10.98
2022-10-29T01:26:29.267Z,10.98
2022-10-29T01:27:48.746Z,11.00
2022-10-29T01:29:21.188Z,10.86
2022-10-29T01:30:50.441Z,10.82
2022-10-29T01:32:07.339Z,10.88
2022-10-29T01:33:29.767Z,10.85
2022-10-29T01:34:57.719Z,10.83
2022-10-29T01:36:19.039Z,10.83
2022-10-29T01:37:37.118Z,10.83
2022-10-29T01:38:51.109Z,10.85
2022-10-29T01:39:55.546Z,10.82
2022-10-29T01:41:23.518Z,10.78
2022-10-29T01:43:06.779Z,10.68
2022-10-29T01:44:19.191Z,10.67
2022-10-29T01:45:43.466Z,10.57
2022-10-29T01:47:18.034Z,10.51
2022-10-29T01:48:29.047Z,10.46
2022-10-29T01:49:42.985Z,10.49
2022-10-29T01:50:50.081Z,10.41
2022-10-29T01:51:59.198Z,10.39
2022-10-29T01:53:05.158Z,10.39
2022-10-29T01:54:11.680Z,10.35
2022-10-29T01:55:20.334Z,10.30
2022-10-29T01:56:27.583Z,10.27
2022-10-29T01:57:38.063Z,10.30
2022-10-29T01:58:47.985Z,10.33
2022-10-29T01:59:56.054Z,10.36
2022-10-29T02:01:07.167Z,10.37
2022-10-29T02:02:13.001Z,10.36
2022-10-29T02:03:46.417Z,10.35
2022-10-29T02:05:14.075Z,10.33
2022-10-29T02:06:34.506Z,10.30
2022-10-29T02:07:54.772Z,10.33
2022-10-29T02:09:17.410Z,10.23
2022-10-29T02:10:24.719Z,10.27
2022-10-29T02:11:48.580Z,10.35
2022-10-29T02:12:58.348Z,10.30
2022-10-29T02:14:15.615Z,10.33
2022-10-29T02:15:23.849Z,10.32
2022-10-29T02:16:28.660Z,10.27
2022-10-29T02:17:34.803Z,10.32
2022-10-29T02:18:44.819Z,10.35
2022-10-29T02:19:47.628Z,10.30
2022-10-29T02:20:49.709Z,10.38
2022-10-29T02:21:51.961Z,10.38
2022-10-29T02:22:54.171Z,10.37
2022-10-29T02:23:56.271Z,10.36
2022-10-29T02:24:58.420Z,10.35
2022-10-29T02:26:02.446Z,10.31
2022-10-29T02:27:04.491Z,10.40
2022-10-29T02:28:07.947Z,10.36
2022-10-29T02:29:10.585Z,10.37
2022-10-29T02:30:15.088Z,10.34
2022-10-29T02:31:17.705Z,10.33
2022-10-29T02:32:20.192Z,10.35
2022-10-29T02:33:22.331Z,10.37
2022-10-29T02:34:24.318Z,10.37
2022-10-29T02:35:26.546Z,10.38
2022-10-29T02:36:28.756Z,10.37
2022-10-29T02:37:31.141Z,10.39
2022-10-29T02:38:33.907Z,10.40
2022-10-29T02:39:36.466Z,10.33
2022-10-29T02:40:40.898Z,10.35
2022-10-29T02:41:43.222Z,10.37
2022-10-29T02:42:46.980Z,10.35
2022-10-29T02:43:50.261Z,10.36
2022-10-29T02:44:52.356Z,10.33
2022-10-29T02:46:18.827Z,10.29
2022-10-29T02:47:22.510Z,10.30
2022-10-29T02:48:24.500Z,10.29
2022-10-29T02:49:28.837Z,10.36
2022-10-29T02:50:33.796Z,10.31
2022-10-29T02:51:36.264Z,10.30
2022-10-29T02:52:38.526Z,10.33
2022-10-29T02:53:40.859Z,10.29
2022-10-29T02:54:44.223Z,10.27
2022-10-29T02:55:46.251Z,10.24
2022-10-29T02:56:48.456Z,10.24
2022-10-29T02:57:50.668Z,10.22
2022-10-29T02:58:53.834Z,10.24
2022-10-29T02:59:55.914Z,10.26
2022-10-29T03:00:58.086Z,10.27
2022-10-29T03:02:03.186Z,10.22
2022-10-29T03:03:06.514Z,10.27
2022-10-29T03:04:11.061Z,10.29
2022-10-29T03:05:13.149Z,10.30
2022-10-29T03:06:16.880Z,10.16
2022-10-29T03:07:18.952Z,10.17
2022-10-29T03:08:21.282Z,10.19
2022-10-29T03:09:23.323Z,10.22
2022-10-29T03:10:30.064Z,10.18
2022-10-29T03:11:33.335Z,10.23
2022-10-29T03:12:35.455Z,10.18
2022-10-29T03:14:39.895Z,10.05
2022-10-29T03:15:45.851Z,10.11
2022-10-29T03:16:47.989Z,10.12
2022-10-29T03:17:50.023Z,10.10
2022-10-29T03:18:53.580Z,10.13
2022-10-29T03:19:56.743Z,10.15
2022-10-29T03:20:59.882Z,10.18
2022-10-29T03:22:01.931Z,10.23
2022-10-29T03:23:05.546Z,10.20
2022-10-29T03:24:09.262Z,10.25
2022-10-29T03:25:11.606Z,10.27
2022-10-29T03:26:13.564Z,10.29
2022-10-29T03:27:16.216Z,10.29
2022-10-29T03:28:18.699Z,10.31
2022-10-29T03:29:21.740Z,10.28
2022-10-29T03:30:23.719Z,10.32
2022-10-29T03:31:28.079Z,10.28
2022-10-29T03:32:30.259Z,10.30
2022-10-29T03:33:32.312Z,10.39
2022-10-29T03:34:35.657Z,10.39
2022-10-29T03:35:37.831Z,10.45
2022-10-29T03:36:42.547Z,10.47
2022-10-29T03:37:49.887Z,10.55
2022-10-29T03:38:52.869Z,10.53
2022-10-29T03:39:55.337Z,10.55
2022-10-29T03:40:58.742Z,10.56
2022-10-29T03:42:04.350Z,10.62
2022-10-29T03:43:06.491Z,10.65
2022-10-29T03:44:08.637Z,10.71
2022-10-29T03:45:13.135Z,10.69
2022-10-29T03:46:15.221Z,10.68
2022-10-29T03:47:17.233Z,10.70
2022-10-29T03:48:19.346Z,10.76
2022-10-29T03:49:21.446Z,10.72
2022-10-29T03:50:23.447Z,10.59
2022-10-29T03:51:25.609Z,10.43
2022-10-29T03:52:29.339Z,10.62
2022-10-29T03:53:32.261Z,10.65
2022-10-29T03:54:34.370Z,10.66
2022-10-29T03:55:36.742Z,10.76
2022-10-29T03:56:42.570Z,10.77
2022-10-29T03:57:47.224Z,10.82
2022-10-29T03:58:49.548Z,10.85
2022-10-29T03:59:52.772Z,10.80
2022-10-29T04:01:07.258Z,10.84
2022-10-29T04:02:12.381Z,10.89
2022-10-29T04:03:17.026Z,10.92
2022-10-29T04:04:19.268Z,10.94
2022-10-29T04:05:22.060Z,10.93
2022-10-29T04:06:24.353Z,10.94
2022-10-29T04:07:27.563Z,10.99
2022-10-29T04:08:30.229Z,10.88
2022-10-29T04:09:32.258Z,10.87
2022-10-29T04:10:34.672Z,10.91
2022-10-29T04:11:36.737Z,10.91
2022-10-29T04:12:38.694Z,10.90
2022-10-29T04:13:41.288Z,10.95
2022-10-29T04:14:45.704Z,10.90
2022-10-29T04:15:50.669Z,11.01
2022-10-29T04:16:55.251Z,10.99
2022-10-29T04:18:01.652Z,10.99
2022-10-29T04:19:05.538Z,10.97
2022-10-29T04:20:19.008Z,10.99
2022-10-29T04:23:25.439Z,10.91
2022-10-29T04:24:12.329Z,10.92
2022-10-29T04:28:43.318Z,11.02
2022-10-29T04:29:46.008Z,11.01
2022-10-29T04:30:48.170Z,11.01
2022-10-29T04:31:50.469Z,11.05
2022-10-29T04:32:59.346Z,11.07
2022-10-29T04:34:01.760Z,11.02
2022-10-29T04:35:04.284Z,11.07
2022-10-29T04:36:08.142Z,11.01
2022-10-29T04:37:10.268Z,11.10
2022-10-29T04:38:13.141Z,11.10
2022-10-29T04:39:18.372Z,11.04
2022-10-29T04:40:24.745Z,11.10
2022-10-29T04:41:27.679Z,11.06
2022-10-29T04:42:39.251Z,11.06
2022-10-29T04:43:41.244Z,11.05
2022-10-29T04:44:45.940Z,11.06
2022-10-29T04:45:52.167Z,10.96
2022-10-29T04:46:55.825Z,11.03
2022-10-29T04:48:07.637Z,11.01
2022-10-29T04:49:09.766Z,11.08
2022-10-29T04:50:13.681Z,11.12
2022-10-29T04:51:24.623Z,11.15
2022-10-29T04:52:26.812Z,11.11
2022-10-29T04:53:28.986Z,11.20
2022-10-29T04:54:30.980Z,11.18
2022-10-29T04:55:36.418Z,11.18
2022-10-29T04:56:39.228Z,11.18
2022-10-29T04:57:44.549Z,11.21
2022-10-29T04:58:46.625Z,11.24
2022-10-29T04:59:48.731Z,11.15
2022-10-29T05:00:50.793Z,11.23
2022-10-29T05:01:53.612Z,11.24
2022-10-29T05:02:56.491Z,11.15
2022-10-29T05:04:00.086Z,11.14
2022-10-29T05:05:05.758Z,11.17
2022-10-29T05:06:07.813Z,11.23
2022-10-29T05:07:09.766Z,11.19
2022-10-29T05:08:12.354Z,11.26
2022-10-29T05:09:14.474Z,11.27
2022-10-29T05:10:17.252Z,11.27
2022-10-29T05:11:19.755Z,11.22
2022-10-29T05:12:22.702Z,11.19
2022-10-29T05:13:24.887Z,11.24
2022-10-29T05:14:26.929Z,11.22
2022-10-29T05:15:29.874Z,11.19
2022-10-29T05:16:32.941Z,11.24
2022-10-29T05:17:39.018Z,11.22
2022-10-29T05:18:41.199Z,11.26
2022-10-29T05:19:43.237Z,11.25
2022-10-29T05:20:46.087Z,11.28
2022-10-29T05:21:48.181Z,11.32
2022-10-29T05:22:50.745Z,11.38
2022-10-29T05:23:52.728Z,11.37
2022-10-29T05:24:54.754Z,11.30
2022-10-29T05:25:56.756Z,11.38
2022-10-29T05:27:00.100Z,11.24
2022-10-29T05:28:07.249Z,11.23
2022-10-29T05:29:09.263Z,11.26
2022-10-29T05:30:11.925Z,11.32
2022-10-29T05:31:14.057Z,11.34
2022-10-29T05:32:18.562Z,11.34
2022-10-29T05:33:26.394Z,11.36
2022-10-29T05:34:29.722Z,11.38
2022-10-29T05:35:31.692Z,11.41
2022-10-29T05:36:33.667Z,11.45
2022-10-29T05:37:35.953Z,11.38
2022-10-29T05:38:38.059Z,11.30
2022-10-29T05:39:40.446Z,11.43
2022-10-29T05:40:45.454Z,11.45
2022-10-29T05:41:47.658Z,11.50
2022-10-29T05:42:50.178Z,11.56
2022-10-29T05:43:52.194Z,11.61
2022-10-29T05:44:54.255Z,11.44
2022-10-29T05:45:58.604Z,11.51
2022-10-29T05:47:03.640Z,11.47
2022-10-29T05:48:05.891Z,11.51
2022-10-29T05:49:08.043Z,11.51
2022-10-29T05:50:10.794Z,11.55
2022-10-29T05:51:12.901Z,11.57
2022-10-29T05:52:14.904Z,11.60
2022-10-29T05:53:16.924Z,11.60
2022-10-29T05:54:19.065Z,11.70
2022-10-29T05:55:21.042Z,11.71
2022-10-29T05:56:23.058Z,11.72
2022-10-29T05:57:25.383Z,11.57
2022-10-29T05:58:29.741Z,11.67
2022-10-29T05:59:33.871Z,11.69
2022-10-29T06:00:38.490Z,11.71
2022-10-29T06:01:40.682Z,11.67
2022-10-29T06:02:44.463Z,11.67
2022-10-29T06:03:46.846Z,11.56
2022-10-29T06:04:48.971Z,11.59
2022-10-29T06:05:52.962Z,11.67
2022-10-29T06:06:55.541Z,11.64
2022-10-29T06:07:59.504Z,11.69
2022-10-29T06:09:02.939Z,11.54
2022-10-29T06:10:05.480Z,11.37
2022-10-29T06:11:07.632Z,11.50
2022-10-29T06:12:09.788Z,11.57
2022-10-29T06:13:18.165Z,11.52
2022-10-29T06:14:20.719Z,11.47
2022-10-29T06:15:24.462Z,11.51
2022-10-29T06:16:26.526Z,11.55
2022-10-29T06:17:29.658Z,11.56
2022-10-29T06:18:32.031Z,11.62
2022-10-29T06:19:34.392Z,11.53
2022-10-29T06:20:41.334Z,11.61
2022-10-29T06:21:45.973Z,11.48
2022-10-29T06:22:57.366Z,11.63
2022-10-29T06:23:59.526Z,11.68
2022-10-29T06:25:01.592Z,11.66
2022-10-29T06:26:03.687Z,11.62
2022-10-29T06:27:05.711Z,11.76
2022-10-29T06:28:10.317Z,11.71
2022-10-29T06:29:12.487Z,11.68
2022-10-29T06:30:15.112Z,11.68
2022-10-29T06:31:20.815Z,11.74
2022-10-29T06:32:23.094Z,11.81
2022-10-29T06:33:25.219Z,11.84
2022-10-29T06:34:27.585Z,11.82
2022-10-29T06:35:30.522Z,11.87
2022-10-29T06:36:33.686Z,11.86
2022-10-29T06:37:38.662Z,11.83
2022-10-29T06:38:43.954Z,11.87
2022-10-29T06:39:47.215Z,11.90
2022-10-29T06:40:59.789Z,11.83
2022-10-29T06:42:02.714Z,11.93
2022-10-29T06:43:09.781Z,11.85
2022-10-29T06:44:12.382Z,11.96
2022-10-29T06:45:18.280Z,11.96
2022-10-29T06:46:21.555Z,12.02
2022-10-29T06:47:23.711Z,11.99
2022-10-29T06:48:32.148Z,11.78
2022-10-29T06:49:36.987Z,11.85
2022-10-29T06:50:39.458Z,11.93
2022-10-29T06:51:42.805Z,11.84
2022-10-29T06:52:44.820Z,11.98
2022-10-29T06:53:47.021Z,12.02
2022-10-29T06:54:58.272Z,12.05
2022-10-29T06:56:03.887Z,11.96
2022-10-29T06:57:06.377Z,11.95
2022-10-29T06:58:13.787Z,11.84
2022-10-29T06:59:15.893Z,11.99
2022-10-29T07:00:18.068Z,11.89
2022-10-29T07:01:20.272Z,11.96
2022-10-29T07:02:23.264Z,11.83
2022-10-29T07:03:25.602Z,11.85
2022-10-29T07:04:27.710Z,11.79
2022-10-29T07:05:29.821Z,11.78
2022-10-29T07:06:34.904Z,11.82
2022-10-29T07:07:37.035Z,11.81
2022-10-29T07:08:39.252Z,11.83
2022-10-29T07:09:43.037Z,11.79
2022-10-29T07:10:45.036Z,11.77
2022-10-29T07:11:48.372Z,11.85
2022-10-29T07:12:50.835Z,11.91
2022-10-29T07:13:54.526Z,11.87
2022-10-29T07:14:58.634Z,11.80
2022-10-29T07:16:00.778Z,11.71
2022-10-29T07:17:03.602Z,11.79
2022-10-29T07:18:07.508Z,11.78
2022-10-29T07:19:12.487Z,11.75
2022-10-29T07:20:22.661Z,11.63
2022-10-29T07:21:25.599Z,11.59
2022-10-29T07:22:33.928Z,11.71
2022-10-29T07:23:38.659Z,11.72
2022-10-29T07:24:40.880Z,11.75
2022-10-29T07:27:02.807Z,11.85
2022-10-29T07:28:13.831Z,11.67
2022-10-29T07:29:17.707Z,11.90
2022-10-29T07:30:22.784Z,11.82
2022-10-29T07:31:29.900Z,11.86
2022-10-29T07:32:33.108Z,11.89
2022-10-29T07:33:35.622Z,11.90
2022-10-29T07:34:45.774Z,11.95
2022-10-29T07:35:48.057Z,11.95
2022-10-29T07:36:50.653Z,11.62
2022-10-29T07:37:53.874Z,11.46
2022-10-29T07:38:56.353Z,11.74
2022-10-29T07:39:59.297Z,11.60
2022-10-29T07:41:01.389Z,11.57
2022-10-29T07:42:04.751Z,11.62
2022-10-29T07:43:07.871Z,11.69
2022-10-29T07:46:45.959Z,11.91
2022-10-29T07:47:48.230Z,11.89
2022-10-29T07:48:51.141Z,11.89
2022-10-29T07:49:53.248Z,11.90
2022-10-29T07:50:59.380Z,11.96
2022-10-29T07:52:01.740Z,12.00
2022-10-29T07:53:07.045Z,11.99
2022-10-29T07:54:14.784Z,12.06
2022-10-29T07:55:17.392Z,12.15
2022-10-29T07:56:21.997Z,12.18
2022-10-29T07:57:26.865Z,12.20
2022-10-29T07:58:40.247Z,12.19
2022-10-29T08:08:02.819Z,12.21
2022-10-29T08:09:10.122Z,12.28
2022-10-29T08:10:22.986Z,12.24
2022-10-29T08:20:37.277Z,12.07
2022-10-29T08:21:39.430Z,12.13
2022-10-29T08:23:02.998Z,12.04
2022-10-29T08:28:31.858Z,11.83
2022-10-29T08:29:37.813Z,11.81
2022-10-29T08:30:45.982Z,11.81
2022-10-29T08:31:48.118Z,11.82
2022-10-29T08:32:50.524Z,11.86
2022-10-29T08:33:53.329Z,11.94
2022-10-29T08:36:21.004Z,11.81
2022-10-29T08:38:55.958Z,11.86
2022-10-29T08:40:02.641Z,11.89
2022-10-29T08:43:29.786Z,11.70
2022-10-29T08:45:14.293Z,11.71
2022-10-29T08:46:29.920Z,11.52
2022-10-29T08:47:53.681Z,11.65
2022-10-29T08:49:04.716Z,11.52
2022-10-29T08:51:59.006Z,11.81
2022-10-29T08:53:22.183Z,11.90
2022-10-29T08:54:32.488Z,11.96
2022-10-29T08:57:35.060Z,11.84
2022-10-29T08:59:05.941Z,12.01
2022-10-29T09:00:26.006Z,11.86
2022-10-29T09:01:43.971Z,11.91
2022-10-29T09:06:40.874Z,11.85
2022-10-29T09:08:27.415Z,11.74
2022-10-29T09:11:19.603Z,11.93
2022-10-29T09:16:18.890Z,11.80
2022-10-29T09:17:48.775Z,11.90
2022-10-29T09:19:37.154Z,12.12
2022-10-29T09:23:14.872Z,12.19
2022-10-29T09:26:04.229Z,12.21
2022-10-29T09:27:51.469Z,12.40
2022-10-29T09:29:11.857Z,12.23
2022-10-29T09:30:31.695Z,12.24
2022-10-29T09:31:52.499Z,12.21
2022-10-29T09:33:12.304Z,12.29
2022-10-29T09:34:32.211Z,12.11
2022-10-29T09:37:23.271Z,11.89
2022-10-29T09:38:38.224Z,12.00
2022-10-29T09:39:59.851Z,12.01
2022-10-29T09:43:44.103Z,12.03
2022-10-29T09:46:37.300Z,11.91
2022-10-29T09:50:05.484Z,11.92
2022-10-29T09:52:57.769Z,11.94
2022-10-29T09:54:01.250Z,12.02
2022-10-29T09:55:09.488Z,11.81
2022-10-29T09:56:16.590Z,11.89
2022-10-29T09:58:05.858Z,11.94
2022-10-29T09:59:27.222Z,11.84
2022-10-29T10:00:35.200Z,11.92
2022-10-29T10:03:47.981Z,11.71
2022-10-29T10:04:55.620Z,11.91
2022-10-29T10:06:07.644Z,11.78
2022-10-29T10:07:19.153Z,11.75
2022-10-29T10:08:22.413Z,11.80
2022-10-29T10:12:13.896Z,11.94
2022-10-29T10:17:24.980Z,11.79
2022-10-29T10:20:03.698Z,11.91
2022-10-29T10:21:10.748Z,11.77
2022-10-29T10:22:25.677Z,11.83
2022-10-29T10:23:44.367Z,11.80
2022-10-29T10:24:49.628Z,11.83
2022-10-29T10:27:31.344Z,11.83
2022-10-29T10:28:37.363Z,11.90
2022-10-29T10:29:40.909Z,11.86
2022-10-29T10:30:45.167Z,11.90
2022-10-29T10:32:09.214Z,11.95
2022-10-29T10:33:25.524Z,11.89
2022-10-29T10:34:39.010Z,11.93
2022-10-29T10:35:41.687Z,11.96
2022-10-29T10:36:57.912Z,11.85
2022-10-29T10:38:08.947Z,11.95
2022-10-29T10:39:32.696Z,12.01
2022-10-29T10:40:38.350Z,11.92
2022-10-29T10:41:43.039Z,11.93
2022-10-29T10:42:47.296Z,11.86
2022-10-29T10:43:49.655Z,11.92
2022-10-29T10:45:00.853Z,11.88
2022-10-29T10:47:43.831Z,11.99
2022-10-29T10:49:17.327Z,11.89
2022-10-29T10:51:57.041Z,12.01
2022-10-29T10:53:14.414Z,12.10
2022-10-29T10:54:38.885Z,11.90
2022-10-29T10:55:50.381Z,12.00
2022-10-29T10:57:00.096Z,11.77
2022-10-29T10:58:36.246Z,11.94
2022-10-29T11:10:49.424Z,11.99
2022-10-29T11:16:46.168Z,11.98
2022-10-29T11:35:22.437Z,11.76
2022-10-29T11:36:27.880Z,11.66
2022-10-29T11:39:54.160Z,11.65
2022-10-29T11:42:47.212Z,11.82
2022-10-29T11:43:56.744Z,11.90
2022-10-29T11:50:53.888Z,11.82
2022-10-29T11:55:26.091Z,11.77
2022-10-29T11:58:58.981Z,11.84
2022-10-29T12:00:38.386Z,11.77
2022-10-29T12:01:58.090Z,11.84
2022-10-29T12:03:18.689Z,11.76
2022-10-29T12:04:29.724Z,11.58
2022-10-29T12:05:40.484Z,11.76
2022-10-29T12:07:09.875Z,11.79
2022-10-29T12:08:45.753Z,11.69
2022-10-29T12:10:01.816Z,11.78
2022-10-29T12:11:23.177Z,11.82
2022-10-29T12:12:35.215Z,11.74
2022-10-29T12:14:14.573Z,11.85
2022-10-29T12:15:46.569Z,11.89
2022-10-29T12:17:04.279Z,11.98
2022-10-29T12:18:09.244Z,11.87
2022-10-29T12:19:22.942Z,12.00
2022-10-29T12:20:40.245Z,11.97
2022-10-29T12:22:14.173Z,11.95
2022-10-29T12:23:40.152Z,11.98
2022-10-29T12:24:51.102Z,11.96
2022-10-29T12:26:19.016Z,11.89
2022-10-29T12:27:58.625Z,11.75
2022-10-29T12:29:23.757Z,11.97
2022-10-29T12:30:27.502Z,11.78
2022-10-29T12:31:38.197Z,11.94
2022-10-29T12:33:05.478Z,11.83
2022-10-29T12:34:31.284Z,11.88
2022-10-29T12:35:57.682Z,11.91
2022-10-29T12:37:38.372Z,11.83
2022-10-29T12:38:50.797Z,11.74
2022-10-29T12:40:06.801Z,11.72
2022-10-29T12:41:17.421Z,11.69
2022-10-29T12:42:27.257Z,11.79
2022-10-29T12:43:32.027Z,11.83
2022-10-29T12:45:04.177Z,11.85
2022-10-29T12:46:26.231Z,11.85
2022-10-29T12:47:43.676Z,11.80
2022-10-29T12:49:13.363Z,11.79
2022-10-29T12:50:34.553Z,11.80
2022-10-29T12:51:49.678Z,11.74
2022-10-29T12:53:03.946Z,11.74
2022-10-29T12:54:44.202Z,11.81
2022-10-29T12:59:32.088Z,11.84
2022-10-29T13:00:58.403Z,11.83
2022-10-29T13:02:31.225Z,11.90
2022-10-29T13:04:35.223Z,11.87
2022-10-29T13:05:54.291Z,11.85
2022-10-29T13:06:58.941Z,11.90
2022-10-29T13:08:05.493Z,11.71
2022-10-29T13:11:25.093Z,11.68
2022-10-29T13:14:20.175Z,11.71
2022-10-29T13:15:55.186Z,11.74
2022-10-29T13:18:24.273Z,11.77
2022-10-29T13:20:04.028Z,11.80
2022-10-29T13:33:29.722Z,11.75
2022-10-29T13:41:54.145Z,11.76
2022-10-29T13:44:36.966Z,11.77
2022-10-29T13:57:08.660Z,11.78
2022-10-29T13:58:39.399Z,11.73
2022-10-29T13:59:49.180Z,11.58
2022-10-29T14:00:52.349Z,11.66
2022-10-29T14:02:15.299Z,11.69
2022-10-29T14:04:01.151Z,11.57
2022-10-29T14:05:31.244Z,11.61
2022-10-29T14:08:18.537Z,11.60
2022-10-29T14:09:33.227Z,11.51
2022-10-29T14:11:03.883Z,11.59
2022-10-29T14:13:55.776Z,11.62
2022-10-29T14:15:23.535Z,11.64
2022-10-29T14:16:37.741Z,11.52
2022-10-29T14:18:58.813Z,11.60
2022-10-29T14:20:07.299Z,11.62
2022-10-29T14:24:25.549Z,11.66
2022-10-29T14:25:33.473Z,11.55
2022-10-29T14:26:45.345Z,11.41
2022-10-29T14:27:49.432Z,11.39
2022-10-29T14:28:54.077Z,11.54
2022-10-29T14:31:38.872Z,11.59
2022-10-29T14:32:43.669Z,11.48
2022-10-29T14:34:00.636Z,11.54
2022-10-29T14:35:13.463Z,11.63
2022-10-29T14:36:36.383Z,11.57
2022-10-29T14:37:47.247Z,11.61
2022-10-29T14:42:07.931Z,11.76
2022-10-29T15:13:11.021Z,11.57
2022-10-29T15:19:40.792Z,11.51
2022-10-29T15:34:06.066Z,11.77
2022-10-29T15:35:28.511Z,11.82
2022-10-29T15:41:38.976Z,11.73
2022-10-29T15:43:49.180Z,11.82
2022-10-29T15:47:30.114Z,11.79
2022-10-29T15:51:38.073Z,11.84
2022-10-29T15:58:47.300Z,11.93
2022-10-29T16:01:16.271Z,11.91
2022-10-29T16:03:45.520Z,11.94
2022-10-29T16:16:02.518Z,11.78
2022-10-29T16:37:36.044Z,11.75
2022-10-29T16:40:03.479Z,11.71
2022-10-29T16:42:43.547Z,11.60
2022-10-29T17:12:30.636Z,11.50
2022-10-29T17:14:04.659Z,11.53
2022-10-29T17:15:08.585Z,11.60
2022-10-29T17:16:19.482Z,11.60
2022-10-29T17:17:24.441Z,11.64
2022-10-29T17:18:34.823Z,11.65
2022-10-29T17:19:39.028Z,11.65
2022-10-29T17:20:58.037Z,11.68
2022-10-29T17:22:01.985Z,11.77
2022-10-29T17:23:13.663Z,11.75
2022-10-29T17:24:16.761Z,11.77
2022-10-29T17:25:20.793Z,11.71
2022-10-29T17:26:23.165Z,11.77
2022-10-29T17:27:25.490Z,11.61
2022-10-29T17:28:29.001Z,11.72
2022-10-29T17:29:40.697Z,11.73
2022-10-29T17:30:44.120Z,11.56
2022-10-29T17:31:46.973Z,11.60
2022-10-29T17:32:50.147Z,11.63
2022-10-29T17:33:54.959Z,11.69
2022-10-29T17:35:03.421Z,11.71
2022-10-29T17:36:16.167Z,11.68
2022-10-29T17:37:19.903Z,11.65
2022-10-29T17:38:24.108Z,11.69
2022-10-29T17:39:27.527Z,11.78
2022-10-29T17:40:30.164Z,11.75
2022-10-29T17:41:37.744Z,11.66
2022-10-29T17:42:43.699Z,11.74
2022-10-29T17:43:47.666Z,11.69
2022-10-29T17:44:52.815Z,11.76
2022-10-29T17:46:00.963Z,11.67
2022-10-29T17:47:04.725Z,11.63
2022-10-29T17:48:07.948Z,11.68
2022-10-29T17:49:11.432Z,11.70
2022-10-29T17:50:14.890Z,11.78
2022-10-29T17:52:52.614Z,11.62
2022-10-29T17:55:20.655Z,11.81
2022-10-29T17:56:25.006Z,11.78
2022-10-29T17:57:28.594Z,11.81
2022-10-29T17:58:32.577Z,11.80
2022-10-29T17:59:37.434Z,11.75
2022-10-29T18:00:41.369Z,11.78
2022-10-29T18:01:46.882Z,11.78
2022-10-29T18:02:54.658Z,11.68
2022-10-29T18:04:12.520Z,11.62
2022-10-29T18:05:19.648Z,11.63
2022-10-29T18:06:25.166Z,11.70
2022-10-29T18:07:30.506Z,11.79
2022-10-29T18:08:34.254Z,11.78
2022-10-29T18:09:36.520Z,11.70
2022-10-29T18:10:39.655Z,11.75
2022-10-29T18:11:46.506Z,11.72
2022-10-29T18:12:49.568Z,11.72
2022-10-29T18:13:54.151Z,11.73
2022-10-29T18:14:57.142Z,11.76
2022-10-29T18:16:34.251Z,11.82
2022-10-29T18:19:05.625Z,11.71
2022-10-29T18:20:15.147Z,11.70
2022-10-29T18:21:21.763Z,11.78
2022-10-29T18:22:28.437Z,11.79
2022-10-29T18:23:39.475Z,11.83
2022-10-29T18:24:49.518Z,11.84
2022-10-29T18:26:06.476Z,11.70
2022-10-29T18:27:10.183Z,11.80
2022-10-29T18:28:12.992Z,11.80
2022-10-29T18:29:17.451Z,11.83
2022-10-29T18:30:25.087Z,11.84
2022-10-29T18:31:33.134Z,11.76
2022-10-29T18:32:36.305Z,11.78
2022-10-29T18:33:44.010Z,11.72
2022-10-29T18:35:01.924Z,11.77
2022-10-29T18:36:06.784Z,11.75
2022-10-29T18:38:31.392Z,11.68
2022-10-29T18:39:36.869Z,11.71
2022-10-29T18:40:40.163Z,11.77
2022-10-29T18:41:43.628Z,11.80
2022-10-29T18:45:24.522Z,11.74
2022-10-29T18:46:27.499Z,11.78
2022-10-29T18:47:30.798Z,11.80
2022-10-29T18:48:38.420Z,11.78
2022-10-29T18:49:45.534Z,11.82
2022-10-29T18:50:53.478Z,11.72
2022-10-29T18:51:57.130Z,11.79
2022-10-29T18:53:04.105Z,11.72
2022-10-29T18:54:07.421Z,11.80
2022-10-29T18:55:12.961Z,11.70
2022-10-29T18:56:20.092Z,11.74
2022-10-29T18:57:24.750Z,11.82
2022-10-29T18:58:29.369Z,11.77
2022-10-29T18:59:31.929Z,11.80
2022-10-29T19:11:59.525Z,11.68
2022-10-29T19:13:07.506Z,11.70
2022-10-29T19:14:16.983Z,11.75
2022-10-29T19:19:42.033Z,11.78
2022-10-29T19:20:57.918Z,11.78
2022-10-29T19:23:24.245Z,11.77
2022-10-29T19:25:50.677Z,11.70
2022-10-29T19:36:40.613Z,11.48
2022-10-29T19:53:00.849Z,11.65
2022-10-29T19:59:42.291Z,11.58
2022-10-29T20:00:45.163Z,11.61
2022-10-29T20:01:49.454Z,11.61
2022-10-29T20:09:17.525Z,11.60
2022-10-29T20:13:22.457Z,11.61
2022-10-29T20:16:56.192Z,11.59
2022-10-29T20:18:14.404Z,11.67
2022-10-29T20:19:25.992Z,11.59
2022-10-29T20:20:31.194Z,11.70
2022-10-29T20:22:36.714Z,11.64
2022-10-29T20:26:40.240Z,11.68
2022-10-29T20:27:43.501Z,11.74
2022-10-29T20:28:49.309Z,11.77
2022-10-29T20:29:54.198Z,11.80
2022-10-29T20:32:45.231Z,11.76
2022-10-29T20:34:12.057Z,11.71
2022-10-29T20:35:16.252Z,11.71
2022-10-29T20:36:19.530Z,11.75
2022-10-29T20:37:24.255Z,11.74
2022-10-29T20:38:29.792Z,11.70
2022-10-29T20:39:33.572Z,11.73
2022-10-29T20:40:43.012Z,11.80
2022-10-29T20:41:45.289Z,11.82
2022-10-29T20:42:52.381Z,11.85
2022-10-29T20:44:00.766Z,11.80
2022-10-29T20:45:04.715Z,11.75
2022-10-29T20:46:10.069Z,11.78
2022-10-29T20:47:13.022Z,11.83
2022-10-29T20:48:16.351Z,11.89
2022-10-29T20:49:18.894Z,11.93
2022-10-29T20:50:22.191Z,11.89
2022-10-29T20:52:45.787Z,11.97
2022-10-29T20:55:23.999Z,11.96
2022-10-29T20:56:30.151Z,11.93
2022-10-29T20:57:35.489Z,11.93
2022-10-29T20:59:08.949Z,11.96
2022-10-29T21:00:20.332Z,11.96
2022-10-29T21:01:25.996Z,12.00
2022-10-29T21:03:57.177Z,11.98
2022-10-29T21:05:02.913Z,11.98
2022-10-29T21:07:26.704Z,11.87
2022-10-29T21:08:31.770Z,11.84
2022-10-29T21:09:35.876Z,11.85
2022-10-29T21:10:39.547Z,11.84
2022-10-29T21:11:42.302Z,11.92
2022-10-29T21:12:47.872Z,11.90